Time;durP1;ratioP1;P1;durP2;ratioP2;P2;SDS_P1;SDS_P2;PMS_P1;PMS_P2;Temp;Humidity;BMP_temperature;BMP_pressure;BME280_temperature;BME280_humidity;BME280_pressure;Samples;Min_cycle;Max_cycle;Signal;HPM_P1;HPM_P2
2023/01/02 00:00:04;;;;;;;1.40;1.00;;;21.30;56.20;;;;;;6037865;23;20392;-83
2023/01/02 00:02:48;;;;;;;1.10;0.90;;;21.30;56.20;;;;;;6015350;23;20404;-83
2023/01/02 00:05:29;;;;;;;1.17;0.83;;;21.40;56.30;;;;;;6014108;23;20384;-84
2023/01/02 00:08:16;;;;;;;1.70;1.30;;;21.30;56.20;;;;;;6038187;23;20345;-84
2023/01/02 00:11:30;;;;;;;1.53;1.20;;;21.40;56.80;;;;;;6038204;23;20376;-84
2023/01/02 00:14:22;;;;;;;1.20;1.10;;;21.30;56.20;;;;;;6038458;23;20377;-84
2023/01/02 00:17:35;;;;;;;;;;;;;;;;;;;;;
2023/01/02 00:20:24;;;;;;;;;;;;;;;;;;;;;
2023/01/02 00:22:57;;;;;;;1.20;0.93;;;21.30;56.30;;;;;;6037862;23;20415;-84
2023/01/02 00:31:58;;;;;;;1.43;1.10;;;21.30;56.20;;;;;;5884274;24;20388;-83
2023/01/02 00:34:37;;;;;;;1.50;1.13;;;21.30;56.20;;;;;;5845250;24;20390;-84
2023/01/02 00:37:33;;;;;;;1.80;1.23;;;21.30;56.30;;;;;;5898540;24;20368;-83
2023/01/02 00:40:12;;;;;;;1.53;1.10;;;21.30;56.30;;;;;;5899168;24;20378;-84
2023/01/02 00:42:46;;;;;;;1.30;1.20;;;21.30;56.30;;;;;;5898955;24;20431;-84
2023/01/02 00:45:24;;;;;;;1.20;1.00;;;21.30;56.30;;;;;;5876918;24;20365;-84
2023/01/02 00:47:54;;;;;;;1.50;1.20;;;21.30;56.30;;;;;;5876664;24;20395;-84
2023/01/02 00:50:41;;;;;;;1.10;1.00;;;21.30;56.20;;;;;;5876703;24;20400;-83
2023/01/02 00:53:22;;;;;;;1.33;1.23;;;21.30;56.30;;;;;;5876359;24;20425;-83
2023/01/02 00:56:01;;;;;;;2.57;1.00;;;21.30;56.30;;;;;;5899157;24;20377;-84
2023/01/02 00:58:35;;;;;;;1.27;1.00;;;21.20;56.20;;;;;;5899059;24;20400;-84
2023/01/02 01:04:31;;;;;;;1.40;1.23;;;21.30;56.20;;;;;;5881111;24;20377;-85
2023/01/02 01:07:03;;;;;;;1.90;1.20;;;21.30;56.20;;;;;;5911108;23;20361;-84
2023/01/02 01:09:46;;;;;;;1.17;1.07;;;21.30;56.30;;;;;;6037110;23;20376;-84
2023/01/02 01:15:28;;;;;;;1.33;1.20;;;21.30;56.30;;;;;;6038006;23;20409;-84
2023/01/02 01:18:04;;;;;;;1.53;1.03;;;21.30;56.30;;;;;;6037712;23;20345;-84
2023/01/02 01:20:46;;;;;;;1.40;1.10;;;21.30;56.30;;;;;;6037219;23;20379;-84
2023/01/02 01:23:23;;;;;;;1.30;1.00;;;21.30;56.30;;;;;;6032748;23;20432;-84
2023/01/02 01:26:10;;;;;;;1.40;1.10;;;21.20;56.20;;;;;;6037478;23;20387;-84
2023/01/02 01:29:07;;;;;;;;;;;;;;;;;;;;;
2023/01/02 01:31:40;;;;;;;1.33;1.10;;;21.20;56.20;;;;;;6034831;23;20373;-85
2023/01/02 01:34:19;;;;;;;1.67;1.00;;;21.20;56.20;;;;;;6013674;23;20368;-85
2023/01/02 01:37:05;;;;;;;1.20;1.00;;;21.20;56.20;;;;;;6036996;23;20372;-84
2023/01/02 01:39:48;;;;;;;1.00;0.83;;;21.20;56.20;;;;;;6012397;23;20412;-84
2023/01/02 01:45:13;;;;;;;1.50;1.03;;;21.20;56.20;;;;;;6036669;23;20376;-84
2023/01/02 01:47:51;;;;;;;2.20;1.27;;;21.20;56.20;;;;;;6037527;23;20376;-84
2023/01/02 01:50:36;;;;;;;1.00;0.90;;;21.20;56.20;;;;;;6021783;23;20372;-84
2023/01/02 01:53:24;;;;;;;1.47;1.20;;;21.20;56.20;;;;;;6066428;23;20410;-84
2023/01/02 01:59:06;;;;;;;1.50;1.10;;;21.20;56.20;;;;;;6068092;23;20350;-84
2023/01/02 02:08:30;;;;;;;1.40;1.10;;;21.20;56.20;;;;;;6068050;23;20432;-84
2023/01/02 02:11:04;;;;;;;1.43;1.00;;;21.10;56.20;;;;;;6067586;23;20368;-84
2023/01/02 02:17:35;;;;;;;1.47;1.17;;;21.20;56.30;;;;;;6096481;23;20374;-84
2023/01/02 02:27:16;;;;;;;1.13;1.03;;;21.20;56.30;;;;;;6039564;23;20361;-85
2023/01/02 02:30:13;;;;;;;1.13;0.87;;;21.10;56.20;;;;;;6038954;23;20391;-83
2023/01/02 02:33:14;;;;;;;1.47;1.33;;;21.20;56.30;;;;;;6015086;23;20375;-84
2023/01/02 02:36:16;;;;;;;1.13;1.00;;;21.10;56.20;;;;;;5992144;24;20376;-84
2023/01/02 02:39:06;;;;;;;1.07;0.90;;;21.20;56.30;;;;;;6010926;24;20357;-84
2023/01/02 02:41:49;;;;;;;1.20;1.00;;;21.10;56.20;;;;;;6010150;24;20388;-84
2023/01/02 02:51:47;;;;;;;1.43;1.33;;;21.20;56.30;;;;;;5983082;23;20361;-84
2023/01/02 02:57:35;;;;;;;1.67;1.00;;;21.10;56.30;;;;;;6042042;23;20463;-84
2023/01/02 03:00:14;;;;;;;1.43;1.20;;;21.10;56.30;;;;;;6044026;23;20375;-84
2023/01/02 03:02:52;;;;;;;1.30;1.00;;;21.10;56.20;;;;;;6038012;23;20454;-83
2023/01/02 03:06:11;;;;;;;1.67;1.37;;;21.10;56.20;;;;;;6043067;23;20411;-83
2023/01/02 03:09:09;;;;;;;1.40;0.93;;;21.10;56.80;;;;;;5982455;24;20370;-83
2023/01/02 03:12:20;;;;;;;1.00;0.80;;;21.10;56.20;;;;;;5982739;24;20378;-83
2023/01/02 03:15:23;;;;;;;1.10;0.90;;;21.10;56.20;;;;;;5934758;24;20415;-83
2023/01/02 03:18:12;;;;;;;1.23;1.00;;;21.10;56.20;;;;;;5903746;24;20382;-83
2023/01/02 03:21:09;;;;;;;1.40;1.07;;;21.10;56.20;;;;;;5927228;24;20408;-83
2023/01/02 03:24:14;;;;;;;1.20;1.10;;;21.10;56.20;;;;;;5952583;24;20412;-83
2023/01/02 03:27:01;;;;;;;1.20;1.00;;;21.10;56.20;;;;;;5969034;24;20402;-83
2023/01/02 03:29:46;;;;;;;1.83;1.33;;;21.10;56.20;;;;;;6010017;24;20389;-83
2023/01/02 03:32:28;;;;;;;1.13;0.90;;;21.10;56.20;;;;;;6009926;24;20461;-83
2023/01/02 03:35:15;;;;;;;;;;;;;;;;;;;;;
2023/01/02 03:38:16;;;;;;;1.53;1.43;;;21.10;56.20;;;;;;5991125;24;20350;-83
2023/01/02 03:44:07;;;;;;;1.40;0.90;;;21.10;56.20;;;;;;6134101;23;20405;-83
2023/01/02 03:46:57;;;;;;;1.10;1.00;;;21.10;56.20;;;;;;6099783;23;20425;-83
2023/01/02 03:50:23;;;;;;;1.10;1.00;;;21.10;56.20;;;;;;6124541;23;20358;-84
2023/01/02 03:53:03;;;;;;;1.07;0.93;;;21.10;56.20;;;;;;6053949;23;20361;-83
2023/01/02 03:55:41;;;;;;;0.93;0.80;;;21.10;56.20;;;;;;6212113;23;20386;-83
2023/01/02 03:58:31;;;;;;;1.17;0.87;;;21.10;56.20;;;;;;6209849;23;20362;-83
2023/01/02 04:01:20;;;;;;;1.83;1.00;;;21.10;56.20;;;;;;6214546;23;20391;-82
2023/01/02 04:03:59;;;;;;;1.50;0.90;;;21.10;56.80;;;;;;6175454;23;20380;-84
2023/01/02 04:06:48;;;;;;;1.17;1.07;;;21.10;56.20;;;;;;6165900;23;20780;-84
2023/01/02 04:09:24;;;;;;;1.50;1.00;;;21.10;56.20;;;;;;6097049;23;20356;-83
2023/01/02 04:12:43;;;;;;;;;;;;;;;;;;;;;
2023/01/02 04:15:34;;;;;;;;;;;;;;;;;;;;;
2023/01/02 04:18:36;;;;;;;1.33;0.90;;;21.10;56.20;;;;;;6214438;23;20364;-83
2023/01/02 04:21:24;;;;;;;1.23;1.13;;;21.10;56.20;;;;;;6189949;23;20359;-84
2023/01/02 04:24:38;;;;;;;1.37;1.00;;;21.10;56.20;;;;;;6214125;23;20363;-83
2023/01/02 04:27:41;;;;;;;;;;;;;;;;;;;;;
2023/01/02 04:30:19;;;;;;;1.47;1.30;;;21.10;56.20;;;;;;6062375;23;20386;-83
2023/01/02 04:32:53;;;;;;;1.57;1.00;;;21.10;56.20;;;;;;6095596;23;20363;-83
2023/01/02 04:35:45;;;;;;;;;;;;;;;;;;;;;
2023/01/02 04:38:26;;;;;;;1.60;0.90;;;21.10;56.20;;;;;;6009449;23;20383;-83
2023/01/02 04:41:03;;;;;;;1.00;0.80;;;21.10;56.20;;;;;;6071190;23;20382;-83
2023/01/02 04:43:46;;;;;;;1.20;0.93;;;21.10;56.20;;;;;;6070165;23;20410;-83
2023/01/02 04:46:13;;;;;;;1.77;1.00;;;21.10;56.20;;;;;;6094975;23;20398;-84
2023/01/02 04:48:44;;;;;;;1.10;0.93;;;21.10;56.20;;;;;;6070746;23;20375;-84
2023/01/02 04:51:11;;;;;;;1.93;1.20;;;21.10;56.20;;;;;;6094849;23;20442;-84
2023/01/02 04:53:38;;;;;;;1.17;1.03;;;21.10;56.20;;;;;;6046758;23;20400;-84
2023/01/02 04:56:13;;;;;;;1.40;1.07;;;21.10;56.20;;;;;;6070768;23;20411;-84
2023/01/02 04:58:39;;;;;;;1.40;0.90;;;21.10;56.20;;;;;;6070812;23;20379;-83
2023/01/02 05:01:51;;;;;;;;;;;;;;;;;;;;;
2023/01/02 05:04:27;;;;;;;1.13;1.00;;;21.10;56.20;;;;;;6181893;23;20374;-84
2023/01/02 05:07:01;;;;;;;1.60;1.30;;;21.10;56.20;;;;;;6182685;23;20395;-84
2023/01/02 05:16:02;;;;;;;1.20;1.10;;;21.10;56.20;;;;;;6214149;23;20403;-84
2023/01/02 05:19:02;;;;;;;1.70;0.90;;;21.00;56.10;;;;;;6187975;23;20387;-84
2023/01/02 05:24:36;;;;;;;1.00;0.90;;;21.00;56.10;;;;;;6214067;23;20355;-84
2023/01/02 05:27:11;;;;;;;2.20;1.10;;;21.00;56.20;;;;;;6188379;23;20390;-84
2023/01/02 05:29:43;;;;;;;1.57;1.10;;;21.00;56.20;;;;;;6180979;23;20367;-84
2023/01/02 05:32:23;;;;;;;1.40;1.00;;;21.00;56.10;;;;;;6212424;23;20379;-84
2023/01/02 05:35:11;;;;;;;1.37;1.10;;;21.00;56.10;;;;;;6211950;23;20375;-84
2023/01/02 05:38:07;;;;;;;1.60;1.13;;;21.10;56.20;;;;;;6188341;23;20405;-84
2023/01/02 05:40:41;;;;;;;1.03;0.87;;;21.00;56.10;;;;;;6203942;23;20427;-84
2023/01/02 05:43:18;;;;;;;1.30;1.00;;;21.00;56.10;;;;;;6213495;23;20403;-84
2023/01/02 05:45:51;;;;;;;1.30;0.97;;;21.00;56.10;;;;;;6209001;23;20391;-85
2023/01/02 05:48:27;;;;;;;1.13;0.93;;;21.00;56.10;;;;;;6162504;23;20382;-84
2023/01/02 05:51:19;;;;;;;1.33;1.00;;;21.00;56.10;;;;;;6212215;23;20375;-84
2023/01/02 05:54:07;;;;;;;;;;;;;;;;;;;;;
2023/01/02 05:56:52;;;;;;;1.60;1.20;;;21.10;56.20;;;;;;6198718;23;20381;-84
2023/01/02 05:59:32;;;;;;;1.50;1.23;;;21.10;56.20;;;;;;6211612;23;20359;-84
2023/01/02 06:02:16;;;;;;;1.83;1.33;;;21.10;56.20;;;;;;6172170;23;20411;-84
2023/01/02 06:04:52;;;;;;;;;;;;;;;;;;;;;
2023/01/02 06:07:36;;;;;;;1.20;1.00;;;21.10;56.20;;;;;;6152688;23;20368;-84
2023/01/02 06:10:26;;;;;;;1.10;0.90;;;21.10;56.20;;;;;;6128132;23;20384;-84
2023/01/02 06:13:28;;;;;;;;;;;;;;;;;;;;;
2023/01/02 06:19:27;;;;;;;1.50;1.00;;;21.10;56.20;;;;;;6066095;23;20376;-84
2023/01/02 06:22:00;;;;;;;1.20;0.90;;;21.10;56.20;;;;;;6065774;23;20435;-84
2023/01/02 06:24:33;;;;;;;1.73;1.20;;;21.10;56.20;;;;;;6042114;23;20379;-84
2023/01/02 06:30:03;;;;;;;1.20;1.00;;;21.20;56.20;;;;;;6065627;23;20363;-84
2023/01/02 06:32:47;;;;;;;1.17;0.90;;;21.20;56.20;;;;;;6043642;23;20451;-84
2023/01/02 06:35:17;;;;;;;1.10;1.00;;;21.20;56.20;;;;;;6054147;23;20378;-84
2023/01/02 06:37:48;;;;;;;1.37;1.17;;;21.10;56.10;;;;;;6095576;23;20381;-84
2023/01/02 06:40:15;;;;;;;1.27;1.00;;;21.20;56.20;;;;;;6096297;23;20371;-84
2023/01/02 06:43:05;;;;;;;1.23;0.90;;;21.20;56.20;;;;;;6096172;23;20425;-84
2023/01/02 06:45:49;;;;;;;;;;;;;;;;;;;;;
2023/01/02 06:48:37;;;;;;;1.13;1.00;;;21.20;56.20;;;;;;6096549;23;20342;-84
2023/01/02 06:51:20;;;;;;;1.10;1.00;;;21.10;56.10;;;;;;6095593;23;20374;-84
2023/01/02 06:54:00;;;;;;;;;;;;;;;;;;;;;
2023/01/02 06:56:42;;;;;;;;;;;;;;;;;;;;;
2023/01/02 06:59:27;;;;;;;1.67;1.50;;;21.20;56.20;;;;;;6057698;23;20376;-83
2023/01/02 07:05:49;;;;;;;1.10;0.90;;;21.20;56.20;;;;;;6095905;23;20399;-84
2023/01/02 07:08:41;;;;;;;1.30;1.20;;;21.20;56.20;;;;;;6071130;23;20393;-84
2023/01/02 07:15:01;;;;;;;1.40;1.03;;;21.20;56.20;;;;;;6038615;23;20363;-84
2023/01/02 07:17:53;;;;;;;1.60;1.03;;;21.30;56.30;;;;;;6021792;23;20414;-85
2023/01/02 07:21:18;;;;;;;1.30;1.00;;;21.30;56.40;;;;;;6038421;23;20379;-85
2023/01/02 07:24:15;;;;;;;1.10;1.00;;;21.30;56.30;;;;;;6031588;23;20455;-84
2023/01/02 07:26:50;;;;;;;1.00;0.90;;;21.30;56.30;;;;;;6068139;23;20427;-83
2023/01/02 07:33:16;;;;;;;1.13;0.97;;;21.30;56.20;;;;;;6046447;23;20497;-84
2023/01/02 07:46:53;;;;;;;;;;;;;;;;;;;;;
2023/01/02 08:16:48;;;;;;;1.10;0.87;;;21.50;56.20;;;;;;6214419;23;20335;-83
2023/01/02 08:23:00;;;;;;;1.50;1.10;;;21.40;56.10;;;;;;6214095;23;20414;-83
2023/01/02 08:26:22;;;;;;;;;;;;;;;;;;;;;
2023/01/02 08:38:57;;;;;;;1.23;1.03;;;21.40;56.20;;;;;;6066506;23;20359;-83
2023/01/02 08:49:05;;;;;;;;;;;;;;;;;;;;;
2023/01/02 08:51:39;;;;;;;1.00;0.70;;;21.40;56.20;;;;;;6009068;24;20354;-83
2023/01/02 08:54:40;;;;;;;;;;;;;;;;;;;;;
2023/01/02 09:03:58;;;;;;;1.10;0.90;;;21.40;56.20;;;;;;5925844;24;20468;-83
2023/01/02 09:06:32;;;;;;;1.23;0.90;;;21.40;56.20;;;;;;5897597;24;20403;-83
2023/01/02 09:08:59;;;;;;;1.17;0.80;;;21.40;56.20;;;;;;5899109;24;20381;-83
2023/01/02 09:11:55;;;;;;;;;;;;;;;;;;;;;
2023/01/02 09:14:29;;;;;;;1.10;0.90;;;21.40;56.20;;;;;;5930584;24;20374;-83
2023/01/02 09:17:22;;;;;;;1.50;1.03;;;21.40;56.10;;;;;;5909142;24;20375;-83
2023/01/02 09:20:18;;;;;;;1.20;1.00;;;21.40;56.10;;;;;;5953827;24;20393;-83
2023/01/02 09:23:08;;;;;;;;;;;;;;;;;;;;;
2023/01/02 09:32:12;;;;;;;1.20;0.80;;;21.40;56.10;;;;;;5899013;24;20361;-83
2023/01/02 09:39:05;;;;;;;1.23;1.10;;;21.40;56.20;;;;;;5898998;24;20373;-84
2023/01/02 09:42:01;;;;;;;1.10;0.80;;;21.40;56.20;;;;;;5872375;24;20373;-84
2023/01/02 09:45:45;;;;;;;;;;;;;;;;;;;;;
2023/01/02 09:48:21;;;;;;;1.30;0.80;;;21.40;56.20;;;;;;5897838;24;20419;-83
2023/01/02 09:55:03;;;;;;;1.20;1.00;;;21.40;56.20;;;;;;5926262;24;20341;-84
2023/01/02 09:58:13;;;;;;;1.27;1.00;;;21.40;56.20;;;;;;5992503;24;20365;-84
2023/01/02 10:01:20;;;;;;;1.10;0.90;;;21.40;56.20;;;;;;5985697;24;20405;-83
2023/01/02 10:04:32;;;;;;;1.33;1.00;;;21.40;56.20;;;;;;6008970;24;20432;-83
2023/01/02 10:07:35;;;;;;;1.20;1.00;;;21.50;56.30;;;;;;6154189;23;20329;-83
2023/01/02 10:17:24;;;;;;;1.20;0.80;;;21.40;56.20;;;;;;6186379;23;20386;-84
2023/01/02 10:24:12;;;;;;;1.00;0.77;;;21.40;56.30;;;;;;6150767;23;20459;-84
2023/01/02 11:03:38;;;;;;;;;;;;;;;;;;;;;
2023/01/02 11:20:48;;;;;;;;;;;;;;;;;;;;;
2023/01/02 11:41:19;;;;;;;;;;;;;;;;;;;;;
2023/01/02 11:44:29;;;;;;;;;;;;;;;;;;;;;
2023/01/02 11:58:06;;;;;;;;;;;;;;;;;;;;;
2023/01/02 12:01:38;;;;;;;1.23;0.93;;;21.40;56.40;;;;;;5819217;24;20372;-84
2023/01/02 12:11:30;;;;;;;1.47;0.93;;;21.40;56.40;;;;;;5815078;24;20436;-83
2023/01/02 12:24:55;;;;;;;1.00;0.90;;;21.40;56.40;;;;;;5926312;24;20451;-84
2023/01/02 12:31:42;;;;;;;;;;;;;;;;;;;;;
2023/01/02 12:55:32;;;;;;;;;;;;;;;;;;;;;
2023/01/02 13:39:17;;;;;;;1.10;0.97;;;21.40;56.60;;;;;;5870474;24;20381;-83
2023/01/02 14:06:27;;;;;;;0.97;0.80;;;21.40;56.60;;;;;;5846441;24;20394;-84
2023/01/02 14:13:14;;;;;;;1.00;0.80;;;21.40;56.60;;;;;;5864018;24;20377;-83
2023/01/02 14:26:52;;;;;;;1.10;1.00;;;21.40;56.60;;;;;;5900139;24;20392;-83
2023/01/02 14:46:37;;;;;;;1.10;0.70;;;21.40;57.20;;;;;;5873329;24;20400;-84
2023/01/02 14:57:26;;;;;;;;;;;;;;;;;;;;;
2023/01/02 16:05:54;;;;;;;;;;;;;;;;;;;;;
2023/01/02 16:25:45;;;;;;;;;;;;;;;;;;;;;
2023/01/02 16:28:57;;;;;;;;;;;;;;;;;;;;;
2023/01/02 16:32:13;;;;;;;;;;;;;;;;;;;;;
2023/01/02 16:41:44;;;;;;;1.23;1.00;;;21.50;56.50;;;;;;5845430;24;20377;-84
2023/01/02 16:45:00;;;;;;;;;;;;;;;;;;;;;
2023/01/02 16:51:23;;;;;;;1.00;0.90;;;21.40;56.40;;;;;;5792070;24;20407;-84
2023/01/02 17:04:00;;;;;;;1.10;0.90;;;21.50;56.40;;;;;;5792548;24;20451;-84
2023/01/02 17:13:45;;;;;;;1.00;0.90;;;21.50;56.40;;;;;;5871891;24;20373;-83
2023/01/02 17:19:52;;;;;;;1.10;0.90;;;21.50;56.40;;;;;;5845088;24;20418;-84
2023/01/02 17:23:13;;;;;;;1.00;0.73;;;21.50;56.40;;;;;;5859175;24;20410;-84
2023/01/02 17:29:05;;;;;;;1.00;0.80;;;21.50;56.40;;;;;;5899225;24;20405;-84
2023/01/02 17:31:54;;;;;;;0.90;0.80;;;21.50;56.40;;;;;;5898778;24;20350;-84
2023/01/02 17:38:15;;;;;;;1.03;0.90;;;21.50;56.40;;;;;;5844983;24;20392;-83
2023/01/02 17:44:45;;;;;;;1.30;1.00;;;21.50;56.40;;;;;;5791974;24;20408;-83
2023/01/02 17:54:12;;;;;;;1.00;0.80;;;21.50;56.40;;;;;;5791844;24;20381;-84
2023/01/02 17:57:11;;;;;;;1.10;0.90;;;21.50;56.40;;;;;;5792026;24;20388;-84
2023/01/02 18:00:11;;;;;;;1.20;0.90;;;21.50;56.40;;;;;;5780332;24;20408;-84
2023/01/02 18:12:06;;;;;;;1.00;0.83;;;21.50;56.40;;;;;;5775170;24;20443;-84
2023/01/02 18:14:57;;;;;;;0.93;0.80;;;21.50;56.40;;;;;;5786487;24;20396;-84
2023/01/02 18:21:30;;;;;;;;;;;;;;;;;;;;;
2023/01/02 18:24:42;;;;;;;1.13;0.70;;;21.50;56.40;;;;;;5873826;24;20428;-84
2023/01/02 18:31:17;;;;;;;;;;;;;;;;;;;;;
2023/01/02 18:34:56;;;;;;;;;;;;;;;;;;;;;
2023/01/02 18:41:13;;;;;;;1.10;0.80;;;21.50;56.40;;;;;;5873443;24;20349;-84
2023/01/02 18:44:19;;;;;;;1.13;1.00;;;21.50;56.40;;;;;;5850505;24;20496;-84
2023/01/02 18:47:37;;;;;;;;;;;;;;;;;;;;;
2023/01/02 18:53:43;;;;;;;1.40;1.00;;;21.50;56.40;;;;;;5899641;24;20364;-84
2023/01/02 18:56:47;;;;;;;1.00;0.90;;;21.50;56.40;;;;;;5899500;24;20392;-84
2023/01/02 19:00:01;;;;;;;1.27;0.93;;;21.50;56.40;;;;;;5924981;24;20422;-84
2023/01/02 19:10:05;;;;;;;1.10;0.80;;;21.50;56.40;;;;;;5902147;24;20467;-84
2023/01/02 19:13:11;;;;;;;;;;;;;;;;;;;;;
2023/01/02 19:33:59;;;;;;;;;;;;;;;;;;;;;
2023/01/02 19:37:02;;;;;;;1.03;0.80;;;21.50;56.50;;;;;;5741143;25;20821;-84
2023/01/02 19:42:57;;;;;;;1.17;0.80;;;21.50;56.50;;;;;;5793180;24;20548;-84
2023/01/02 19:49:10;;;;;;;1.10;0.80;;;21.40;56.40;;;;;;5793142;24;20375;-84
2023/01/02 19:59:15;;;;;;;1.07;0.90;;;21.50;56.50;;;;;;5984073;23;20389;-85
2023/01/02 23:12:51;;;;;;;1.70;1.10;;;21.40;56.50;;;;;;5900056;24;20452;-84
2023/01/02 23:46:57;;;;;;;1.30;1.00;;;21.40;56.60;;;;;;5872001;24;20381;-84
